QFA2531 UEEE-ZBAD
Flight info
| Callsign | QFA2531 |
|---|---|
| Flight time | 3h 57m |
| Altitude | 39000 |
| Route | OGLIS6E OGLIS B148 ODANA/K0883F400 N620 NALEB/K0878F390 G494 NINON/K0880F400 G494 RUNET/K0787F260 G494 SIMLI/K0882S1220 A588 HRB G212 BUMDU BUMDU5L |
| Aircraft | A339/H-SADE1E2E3GHIJ3J5M1P2RWXY/LB2D1 |
Departure
| Time | 2026-04-17 05:13 |
|---|---|
| Airport | Platon Oyunsky Yakutsk International Airport (UEEE) |
Arrival
| Time | 2026-04-17 09:10 |
|---|---|
| Airport | Beijing Daxing International Airport (ZBAD) |
| Time | Latitude | Longitude | Altitude | Speed | Heading |
|---|---|---|---|---|---|
| 2026-04-17 05:00 | 62.08687 | 129.75181 | 339 ft | 0 kts | 269° |
| 2026-04-17 05:08 | 62.08687 | 129.75215 | 333 ft | 3 kts | 269° |
| 2026-04-17 05:09 | 62.08687 | 129.75258 | 336 ft | 3 kts | 269° |
| 2026-04-17 05:09 | 62.08687 | 129.75301 | 333 ft | 3 kts | 253° |
| 2026-04-17 05:09 | 62.08694 | 129.75342 | 333 ft | 3 kts | 232° |
| 2026-04-17 05:09 | 62.08708 | 129.75376 | 333 ft | 3 kts | 211° |
| 2026-04-17 05:10 | 62.08725 | 129.75397 | 333 ft | 0 kts | 188° |
| 2026-04-17 05:10 | 62.08724 | 129.75397 | 333 ft | 0 kts | 188° |
| 2026-04-17 05:10 | 62.08707 | 129.75393 | 333 ft | 6 kts | 185° |
| 2026-04-17 05:11 | 62.08639 | 129.75376 | 334 ft | 13 kts | 192° |
| 2026-04-17 05:11 | 62.08536 | 129.75271 | 337 ft | 20 kts | 206° |
| 2026-04-17 05:11 | 62.08404 | 129.75131 | 336 ft | 22 kts | 206° |
| 2026-04-17 05:11 | 62.08320 | 129.75154 | 339 ft | 10 kts | 124° |
| 2026-04-17 05:12 | 62.08287 | 129.75300 | 336 ft | 13 kts | 113° |
| 2026-04-17 05:12 | 62.08247 | 129.75485 | 335 ft | 14 kts | 118° |
| 2026-04-17 05:12 | 62.08218 | 129.75680 | 335 ft | 12 kts | 75° |
| 2026-04-17 05:12 | 62.08315 | 129.75865 | 334 ft | 46 kts | 39° |
| 2026-04-17 05:13 | 62.08812 | 129.76648 | 333 ft | 128 kts | 39° |
| 2026-04-17 05:13 | 62.09681 | 129.78048 | 508 ft | 174 kts | 35° |
| 2026-04-17 05:13 | 62.10624 | 129.79534 | 1503 ft | 163 kts | 36° |
| 2026-04-17 05:13 | 62.11530 | 129.80947 | 2507 ft | 164 kts | 38° |
| 2026-04-17 05:14 | 62.12503 | 129.82496 | 3105 ft | 184 kts | 40° |
| 2026-04-17 05:14 | 62.13568 | 129.84223 | 3636 ft | 205 kts | 40° |
| 2026-04-17 05:14 | 62.14757 | 129.86165 | 4016 ft | 225 kts | 40° |
| 2026-04-17 05:14 | 62.16061 | 129.88279 | 4393 ft | 245 kts | 40° |
| 2026-04-17 05:15 | 62.17457 | 129.90523 | 4871 ft | 254 kts | 41° |
| 2026-04-17 05:15 | 62.18854 | 129.92865 | 5618 ft | 255 kts | 47° |
| 2026-04-17 05:15 | 62.19816 | 129.96003 | 6342 ft | 251 kts | 73° |
| 2026-04-17 05:15 | 62.20009 | 129.99659 | 7070 ft | 248 kts | 99° |
| 2026-04-17 05:16 | 62.19398 | 130.03063 | 7837 ft | 248 kts | 125° |
| 2026-04-17 05:16 | 62.18293 | 130.05919 | 8591 ft | 251 kts | 130° |
| 2026-04-17 05:16 | 62.17156 | 130.08793 | 9343 ft | 253 kts | 129° |
| 2026-04-17 05:16 | 62.16058 | 130.11710 | 10092 ft | 256 kts | 128° |
| 2026-04-17 05:17 | 62.14943 | 130.14755 | 10819 ft | 258 kts | 127° |
| 2026-04-17 05:17 | 62.13866 | 130.17783 | 11526 ft | 260 kts | 127° |
| 2026-04-17 05:17 | 62.12775 | 130.20887 | 12250 ft | 262 kts | 127° |
| 2026-04-17 05:17 | 62.11545 | 130.23775 | 12908 ft | 266 kts | 142° |
| 2026-04-17 05:18 | 62.09850 | 130.25405 | 13667 ft | 272 kts | 165° |
| 2026-04-17 05:18 | 62.08593 | 130.25580 | 14098 ft | 279 kts | 181° |
| 2026-04-17 05:18 | 62.06698 | 130.24440 | 14739 ft | 288 kts | 198° |
| 2026-04-17 05:18 | 62.04787 | 130.22738 | 14951 ft | 307 kts | 198° |
| 2026-04-17 05:19 | 62.02752 | 130.20963 | 15129 ft | 324 kts | 198° |
| 2026-04-17 05:19 | 62.00625 | 130.19160 | 15306 ft | 340 kts | 197° |
| 2026-04-17 05:19 | 61.98398 | 130.17304 | 15779 ft | 346 kts | 197° |
| 2026-04-17 05:19 | 61.96146 | 130.15439 | 16370 ft | 348 kts | 197° |
| 2026-04-17 05:20 | 61.93883 | 130.13572 | 16971 ft | 350 kts | 197° |
| 2026-04-17 05:20 | 61.91602 | 130.11699 | 17524 ft | 353 kts | 197° |
| 2026-04-17 05:20 | 61.89306 | 130.09817 | 18114 ft | 355 kts | 196° |
| 2026-04-17 05:20 | 61.87016 | 130.07947 | 18629 ft | 357 kts | 196° |
| 2026-04-17 05:21 | 61.84694 | 130.06053 | 19161 ft | 359 kts | 196° |
| 2026-04-17 05:21 | 61.82351 | 130.04146 | 19690 ft | 361 kts | 196° |
| 2026-04-17 05:21 | 61.79995 | 130.02231 | 20217 ft | 364 kts | 196° |
| 2026-04-17 05:21 | 61.77628 | 130.00308 | 20735 ft | 366 kts | 196° |
| 2026-04-17 05:22 | 61.75237 | 129.98369 | 21259 ft | 368 kts | 196° |
| 2026-04-17 05:22 | 61.72838 | 129.96425 | 21797 ft | 371 kts | 196° |
| 2026-04-17 05:22 | 61.70420 | 129.94470 | 22316 ft | 373 kts | 196° |
| 2026-04-17 05:22 | 61.67985 | 129.92513 | 22865 ft | 375 kts | 195° |
| 2026-04-17 05:23 | 61.65473 | 129.91095 | 23354 ft | 372 kts | 185° |
| 2026-04-17 05:23 | 61.62903 | 129.90648 | 23791 ft | 370 kts | 176° |
| 2026-04-17 05:23 | 61.60341 | 129.91131 | 24247 ft | 369 kts | 168° |
| 2026-04-17 05:23 | 61.57794 | 129.91929 | 24690 ft | 371 kts | 168° |
| 2026-04-17 05:24 | 61.55255 | 129.92687 | 25104 ft | 375 kts | 169° |
| 2026-04-17 05:24 | 61.52631 | 129.93450 | 25554 ft | 377 kts | 168° |
| 2026-04-17 05:24 | 61.50076 | 129.94207 | 25953 ft | 380 kts | 169° |
| 2026-04-17 05:24 | 61.47394 | 129.94965 | 26367 ft | 383 kts | 169° |
| 2026-04-17 05:25 | 61.44781 | 129.95689 | 26780 ft | 385 kts | 169° |
| 2026-04-17 05:25 | 61.42116 | 129.96426 | 27185 ft | 388 kts | 169° |
| 2026-04-17 05:25 | 61.39423 | 129.97172 | 27581 ft | 391 kts | 169° |
| 2026-04-17 05:25 | 61.36715 | 129.97924 | 27971 ft | 394 kts | 170° |
| 2026-04-17 05:26 | 61.33988 | 129.98681 | 28353 ft | 397 kts | 170° |
| 2026-04-17 05:26 | 61.31242 | 129.99444 | 28725 ft | 400 kts | 170° |
| 2026-04-17 05:26 | 61.28478 | 130.00212 | 29101 ft | 402 kts | 170° |
| 2026-04-17 05:26 | 61.25690 | 130.00983 | 29458 ft | 405 kts | 170° |
| 2026-04-17 05:27 | 61.22876 | 130.01758 | 29820 ft | 408 kts | 170° |
| 2026-04-17 05:27 | 61.20049 | 130.02536 | 30121 ft | 412 kts | 170° |
| 2026-04-17 05:27 | 61.17193 | 130.03321 | 30397 ft | 415 kts | 171° |
| 2026-04-17 05:27 | 61.14316 | 130.04111 | 30668 ft | 419 kts | 171° |
| 2026-04-17 05:28 | 61.11407 | 130.04907 | 30964 ft | 423 kts | 171° |
| 2026-04-17 05:28 | 61.08479 | 130.05708 | 31244 ft | 426 kts | 171° |
| 2026-04-17 05:28 | 61.05567 | 130.06504 | 31526 ft | 430 kts | 171° |
| 2026-04-17 05:28 | 61.02586 | 130.07316 | 31799 ft | 433 kts | 171° |
| 2026-04-17 05:29 | 60.99586 | 130.08132 | 32075 ft | 437 kts | 171° |
| 2026-04-17 05:29 | 60.96564 | 130.08954 | 32327 ft | 440 kts | 171° |
| 2026-04-17 05:29 | 60.93513 | 130.09776 | 32551 ft | 443 kts | 171° |
| 2026-04-17 05:29 | 60.90456 | 130.10598 | 32762 ft | 445 kts | 171° |
| 2026-04-17 05:30 | 60.87371 | 130.11433 | 32947 ft | 447 kts | 171° |
| 2026-04-17 05:30 | 60.84274 | 130.12275 | 33117 ft | 450 kts | 171° |
| 2026-04-17 05:30 | 60.81169 | 130.13115 | 33287 ft | 451 kts | 172° |
| 2026-04-17 05:30 | 60.78047 | 130.13949 | 33474 ft | 452 kts | 172° |
| 2026-04-17 05:31 | 60.74930 | 130.14775 | 33681 ft | 453 kts | 172° |
| 2026-04-17 05:31 | 60.71806 | 130.15603 | 33872 ft | 453 kts | 172° |
| 2026-04-17 05:31 | 60.68680 | 130.16432 | 34052 ft | 453 kts | 172° |
| 2026-04-17 05:31 | 60.65553 | 130.17262 | 34229 ft | 453 kts | 172° |
| 2026-04-17 05:32 | 60.62419 | 130.18096 | 34410 ft | 453 kts | 172° |
| 2026-04-17 05:32 | 60.59294 | 130.18926 | 34569 ft | 454 kts | 172° |
| 2026-04-17 05:32 | 60.56154 | 130.19758 | 34734 ft | 454 kts | 172° |
| 2026-04-17 05:32 | 60.53055 | 130.20577 | 34895 ft | 455 kts | 172° |
| 2026-04-17 05:33 | 60.49906 | 130.21408 | 35078 ft | 455 kts | 172° |
| 2026-04-17 05:33 | 60.46759 | 130.22236 | 35238 ft | 455 kts | 172° |
| 2026-04-17 05:33 | 60.43614 | 130.23062 | 35412 ft | 455 kts | 172° |
| 2026-04-17 05:33 | 60.40463 | 130.23888 | 35575 ft | 456 kts | 172° |
| 2026-04-17 05:34 | 60.37314 | 130.24712 | 35739 ft | 456 kts | 172° |
| 2026-04-17 05:34 | 60.34162 | 130.25535 | 35905 ft | 456 kts | 172° |
| 2026-04-17 05:34 | 60.31045 | 130.26348 | 36073 ft | 457 kts | 172° |
| 2026-04-17 05:34 | 60.27894 | 130.27167 | 36231 ft | 457 kts | 172° |
| 2026-04-17 05:35 | 60.24730 | 130.27989 | 36397 ft | 457 kts | 173° |
| 2026-04-17 05:35 | 60.21568 | 130.28808 | 36553 ft | 458 kts | 173° |
| 2026-04-17 05:35 | 60.18407 | 130.29626 | 36712 ft | 458 kts | 173° |
| 2026-04-17 05:35 | 60.15244 | 130.30442 | 36876 ft | 458 kts | 173° |
| 2026-04-17 05:36 | 60.12076 | 130.31258 | 37027 ft | 459 kts | 173° |
| 2026-04-17 05:36 | 60.08903 | 130.32074 | 37199 ft | 459 kts | 173° |
| 2026-04-17 05:36 | 60.05732 | 130.32888 | 37348 ft | 459 kts | 173° |
| 2026-04-17 05:36 | 60.02557 | 130.33701 | 37503 ft | 459 kts | 173° |
| 2026-04-17 05:37 | 59.99431 | 130.34500 | 37659 ft | 460 kts | 173° |
| 2026-04-17 05:37 | 59.96247 | 130.35313 | 37803 ft | 460 kts | 173° |
| 2026-04-17 05:37 | 59.93072 | 130.36121 | 37970 ft | 460 kts | 173° |
| 2026-04-17 05:37 | 59.89894 | 130.36929 | 38115 ft | 460 kts | 173° |
| 2026-04-17 05:38 | 59.86717 | 130.37735 | 38276 ft | 460 kts | 173° |
| 2026-04-17 05:38 | 59.83531 | 130.38542 | 38416 ft | 461 kts | 173° |
| 2026-04-17 05:38 | 59.80348 | 130.39346 | 38546 ft | 461 kts | 173° |
| 2026-04-17 05:38 | 59.77165 | 130.40149 | 38677 ft | 461 kts | 173° |
| 2026-04-17 05:39 | 59.73976 | 130.40952 | 38783 ft | 461 kts | 173° |
| 2026-04-17 05:39 | 59.70798 | 130.41752 | 38786 ft | 460 kts | 173° |
| 2026-04-17 05:39 | 59.64476 | 130.43335 | 38891 ft | 461 kts | 173° |
| 2026-04-17 05:40 | 59.61296 | 130.44129 | 39011 ft | 461 kts | 173° |
| 2026-04-17 05:40 | 59.58107 | 130.44924 | 39131 ft | 461 kts | 173° |
| 2026-04-17 05:40 | 59.54923 | 130.45725 | 39245 ft | 461 kts | 173° |
| 2026-04-17 05:40 | 59.51738 | 130.46517 | 39361 ft | 461 kts | 173° |
| 2026-04-17 05:41 | 59.48552 | 130.47297 | 39467 ft | 461 kts | 173° |
| 2026-04-17 05:41 | 59.45364 | 130.48079 | 39591 ft | 461 kts | 173° |
| 2026-04-17 05:41 | 59.42172 | 130.48864 | 39704 ft | 461 kts | 174° |
| 2026-04-17 05:41 | 59.38981 | 130.49648 | 39782 ft | 462 kts | 173° |
| 2026-04-17 05:42 | 59.32609 | 130.51214 | 39794 ft | 461 kts | 174° |
| 2026-04-17 05:42 | 59.26246 | 130.52773 | 39793 ft | 461 kts | 174° |
| 2026-04-17 05:43 | 59.19869 | 130.54328 | 39788 ft | 462 kts | 174° |
| 2026-04-17 05:43 | 59.13534 | 130.55870 | 39788 ft | 462 kts | 174° |
| 2026-04-17 05:44 | 59.07149 | 130.57417 | 39786 ft | 462 kts | 174° |
| 2026-04-17 05:44 | 59.00760 | 130.58959 | 39792 ft | 462 kts | 174° |
| 2026-04-17 05:45 | 58.94369 | 130.60496 | 39793 ft | 463 kts | 174° |
| 2026-04-17 05:45 | 58.87975 | 130.62029 | 39789 ft | 463 kts | 174° |
| 2026-04-17 05:46 | 58.81586 | 130.63510 | 39783 ft | 462 kts | 176° |
| 2026-04-17 05:46 | 58.75182 | 130.62815 | 39782 ft | 461 kts | 192° |
| 2026-04-17 05:47 | 58.69162 | 130.58908 | 39779 ft | 460 kts | 206° |
| 2026-04-17 05:47 | 58.63566 | 130.52888 | 39783 ft | 461 kts | 209° |
| 2026-04-17 05:48 | 58.57960 | 130.46897 | 39787 ft | 461 kts | 209° |
| 2026-04-17 05:48 | 58.52341 | 130.40959 | 39790 ft | 461 kts | 209° |
| 2026-04-17 05:49 | 58.46712 | 130.35034 | 39796 ft | 462 kts | 209° |
| 2026-04-17 05:49 | 58.41081 | 130.29126 | 39791 ft | 462 kts | 209° |
| 2026-04-17 05:50 | 58.35447 | 130.23237 | 39794 ft | 462 kts | 209° |
| 2026-04-17 05:50 | 58.29812 | 130.17369 | 39795 ft | 462 kts | 209° |
| 2026-04-17 05:51 | 58.24173 | 130.11516 | 39793 ft | 461 kts | 209° |
| 2026-04-17 05:51 | 58.18565 | 130.05717 | 39795 ft | 461 kts | 208° |
| 2026-04-17 05:52 | 58.12931 | 129.99909 | 39787 ft | 461 kts | 209° |
| 2026-04-17 05:52 | 58.07296 | 129.94111 | 39791 ft | 461 kts | 209° |
| 2026-04-17 05:53 | 58.01660 | 129.88336 | 39789 ft | 461 kts | 208° |
| 2026-04-17 05:53 | 57.96011 | 129.82572 | 39790 ft | 461 kts | 208° |
| 2026-04-17 05:54 | 57.90367 | 129.76830 | 39786 ft | 461 kts | 208° |
| 2026-04-17 05:54 | 57.84719 | 129.71108 | 39784 ft | 461 kts | 208° |
| 2026-04-17 05:55 | 57.79066 | 129.65401 | 39785 ft | 461 kts | 208° |
| 2026-04-17 05:55 | 57.73414 | 129.59715 | 39768 ft | 461 kts | 208° |
| 2026-04-17 05:56 | 57.67794 | 129.54083 | 39780 ft | 461 kts | 208° |
| 2026-04-17 05:56 | 57.62138 | 129.48431 | 39774 ft | 461 kts | 208° |
| 2026-04-17 05:57 | 57.56478 | 129.42796 | 39773 ft | 460 kts | 208° |
| 2026-04-17 05:57 | 57.50818 | 129.37182 | 39764 ft | 460 kts | 208° |
| 2026-04-17 05:58 | 57.45163 | 129.31593 | 39767 ft | 460 kts | 208° |
| 2026-04-17 05:59 | 57.36708 | 129.23273 | 39774 ft | 460 kts | 208° |
| 2026-04-17 05:59 | 57.31045 | 129.17725 | 39769 ft | 460 kts | 208° |
| 2026-04-17 06:00 | 57.25390 | 129.12203 | 39778 ft | 460 kts | 208° |
| 2026-04-17 06:00 | 57.19727 | 129.06695 | 39773 ft | 460 kts | 208° |
| 2026-04-17 06:01 | 57.14062 | 129.01201 | 39783 ft | 460 kts | 208° |
| 2026-04-17 06:01 | 57.08399 | 128.95729 | 39781 ft | 460 kts | 208° |
| 2026-04-17 06:02 | 57.02735 | 128.90276 | 39787 ft | 459 kts | 208° |
| 2026-04-17 06:02 | 56.97110 | 128.84878 | 39779 ft | 459 kts | 208° |
| 2026-04-17 06:03 | 56.91407 | 128.79425 | 39786 ft | 459 kts | 208° |
| 2026-04-17 06:03 | 56.85767 | 128.74050 | 39793 ft | 459 kts | 208° |
| 2026-04-17 06:04 | 56.81057 | 128.69573 | 39792 ft | 459 kts | 208° |
| 2026-04-17 06:04 | 56.75374 | 128.64199 | 39793 ft | 459 kts | 208° |
| 2026-04-17 06:05 | 56.69692 | 128.58858 | 39797 ft | 459 kts | 208° |
| 2026-04-17 06:05 | 56.64010 | 128.53530 | 39800 ft | 459 kts | 208° |
| 2026-04-17 06:06 | 56.58326 | 128.48218 | 39801 ft | 459 kts | 208° |
| 2026-04-17 06:06 | 56.52641 | 128.42922 | 39813 ft | 459 kts | 208° |
| 2026-04-17 06:07 | 56.46960 | 128.37647 | 39817 ft | 459 kts | 208° |
| 2026-04-17 06:07 | 56.41274 | 128.32386 | 39814 ft | 459 kts | 208° |
| 2026-04-17 06:08 | 56.35584 | 128.27142 | 39810 ft | 459 kts | 208° |
| 2026-04-17 06:08 | 56.29935 | 128.21945 | 39832 ft | 459 kts | 208° |
| 2026-04-17 06:09 | 56.24287 | 128.16587 | 39836 ft | 458 kts | 209° |
| 2026-04-17 06:09 | 56.18647 | 128.11222 | 39842 ft | 458 kts | 209° |
| 2026-04-17 06:10 | 56.12996 | 128.05890 | 39834 ft | 458 kts | 209° |
| 2026-04-17 06:10 | 56.07385 | 128.00623 | 39846 ft | 458 kts | 209° |
| 2026-04-17 06:11 | 56.01698 | 127.95302 | 39852 ft | 458 kts | 209° |
| 2026-04-17 06:11 | 55.96085 | 127.90067 | 39851 ft | 458 kts | 209° |
| 2026-04-17 06:12 | 55.90418 | 127.84827 | 39855 ft | 458 kts | 208° |
| 2026-04-17 06:12 | 55.84699 | 127.79826 | 39860 ft | 458 kts | 207° |
| 2026-04-17 06:13 | 55.79003 | 127.74877 | 39860 ft | 458 kts | 207° |
| 2026-04-17 06:13 | 55.73280 | 127.69887 | 39866 ft | 458 kts | 208° |
| 2026-04-17 06:14 | 55.67560 | 127.64906 | 39866 ft | 458 kts | 207° |
| 2026-04-17 06:14 | 55.61832 | 127.59935 | 39868 ft | 458 kts | 207° |
| 2026-04-17 06:15 | 55.56105 | 127.54983 | 39869 ft | 458 kts | 207° |
| 2026-04-17 06:15 | 55.50381 | 127.50048 | 39880 ft | 458 kts | 207° |
| 2026-04-17 06:16 | 55.44686 | 127.45155 | 39882 ft | 458 kts | 207° |
| 2026-04-17 06:16 | 55.38951 | 127.40249 | 39890 ft | 458 kts | 207° |
| 2026-04-17 06:17 | 55.33001 | 127.36210 | 39886 ft | 460 kts | 199° |
| 2026-04-17 06:17 | 55.26735 | 127.33784 | 39679 ft | 460 kts | 190° |
| 2026-04-17 06:17 | 55.23552 | 127.33187 | 39269 ft | 459 kts | 187° |
| 2026-04-17 06:18 | 55.20379 | 127.32731 | 38995 ft | 457 kts | 187° |
| 2026-04-17 06:18 | 55.14039 | 127.31762 | 38895 ft | 464 kts | 188° |
| 2026-04-17 06:19 | 55.07605 | 127.30729 | 38899 ft | 464 kts | 188° |
| 2026-04-17 06:19 | 55.01171 | 127.29689 | 38897 ft | 464 kts | 188° |
| 2026-04-17 06:20 | 54.94746 | 127.28654 | 38897 ft | 463 kts | 188° |
| 2026-04-17 06:20 | 54.88320 | 127.27621 | 38897 ft | 463 kts | 188° |
| 2026-04-17 06:21 | 54.81941 | 127.26599 | 38906 ft | 463 kts | 188° |
| 2026-04-17 06:21 | 54.75524 | 127.25572 | 38897 ft | 463 kts | 188° |
| 2026-04-17 06:22 | 54.69105 | 127.24542 | 38897 ft | 463 kts | 188° |
| 2026-04-17 06:22 | 54.62692 | 127.23518 | 38903 ft | 463 kts | 188° |
| 2026-04-17 06:23 | 54.56278 | 127.22497 | 38902 ft | 462 kts | 188° |
| 2026-04-17 06:23 | 54.49872 | 127.21482 | 38912 ft | 462 kts | 188° |
| 2026-04-17 06:24 | 54.43495 | 127.20473 | 38906 ft | 462 kts | 188° |
| 2026-04-17 06:24 | 54.37083 | 127.19463 | 38908 ft | 462 kts | 188° |
| 2026-04-17 06:25 | 54.30673 | 127.18455 | 38907 ft | 462 kts | 188° |
| 2026-04-17 06:25 | 54.24269 | 127.17451 | 38908 ft | 462 kts | 188° |
| 2026-04-17 06:26 | 54.17862 | 127.16449 | 38910 ft | 462 kts | 188° |
| 2026-04-17 06:26 | 54.11437 | 127.15447 | 38908 ft | 462 kts | 188° |
| 2026-04-17 06:27 | 54.05030 | 127.14452 | 38907 ft | 462 kts | 188° |
| 2026-04-17 06:27 | 53.98628 | 127.13461 | 38904 ft | 462 kts | 188° |
| 2026-04-17 06:28 | 53.92263 | 127.12478 | 38906 ft | 462 kts | 188° |
| 2026-04-17 06:28 | 53.85849 | 127.11492 | 38903 ft | 462 kts | 188° |
| 2026-04-17 06:29 | 53.79439 | 127.10510 | 38903 ft | 462 kts | 188° |
| 2026-04-17 06:29 | 53.73028 | 127.09627 | 38900 ft | 463 kts | 185° |
| 2026-04-17 06:30 | 53.66566 | 127.10042 | 38896 ft | 467 kts | 176° |
| 2026-04-17 06:30 | 53.60190 | 127.12050 | 38895 ft | 470 kts | 171° |
| 2026-04-17 06:31 | 53.53793 | 127.14397 | 38893 ft | 470 kts | 172° |
| 2026-04-17 06:31 | 53.47382 | 127.16674 | 38897 ft | 470 kts | 172° |
| 2026-04-17 06:32 | 53.40970 | 127.18924 | 38897 ft | 470 kts | 172° |
| 2026-04-17 06:32 | 53.34553 | 127.21169 | 38899 ft | 470 kts | 172° |
| 2026-04-17 06:33 | 53.28187 | 127.23390 | 38901 ft | 470 kts | 172° |
| 2026-04-17 06:33 | 53.21774 | 127.25616 | 38898 ft | 470 kts | 172° |
| 2026-04-17 06:34 | 53.15359 | 127.27835 | 38899 ft | 470 kts | 172° |
| 2026-04-17 06:34 | 53.08948 | 127.30045 | 38896 ft | 470 kts | 172° |
| 2026-04-17 06:35 | 53.02543 | 127.32248 | 38898 ft | 470 kts | 172° |
| 2026-04-17 06:35 | 52.96130 | 127.34447 | 38900 ft | 470 kts | 172° |
| 2026-04-17 06:36 | 52.89721 | 127.36638 | 38904 ft | 470 kts | 172° |
| 2026-04-17 06:36 | 52.83312 | 127.38822 | 38897 ft | 470 kts | 172° |
| 2026-04-17 06:37 | 52.76940 | 127.40988 | 38901 ft | 470 kts | 172° |
| 2026-04-17 06:37 | 52.70525 | 127.43161 | 38894 ft | 470 kts | 172° |
| 2026-04-17 06:38 | 52.64116 | 127.45329 | 38896 ft | 470 kts | 172° |
| 2026-04-17 06:38 | 52.57692 | 127.47506 | 38896 ft | 470 kts | 172° |
| 2026-04-17 06:39 | 52.51313 | 127.49662 | 38896 ft | 470 kts | 172° |
| 2026-04-17 06:39 | 52.44907 | 127.51819 | 38891 ft | 470 kts | 172° |
| 2026-04-17 06:40 | 52.38488 | 127.53973 | 38894 ft | 470 kts | 172° |
| 2026-04-17 06:40 | 52.32083 | 127.56117 | 38892 ft | 470 kts | 173° |
| 2026-04-17 06:41 | 52.25673 | 127.58256 | 38885 ft | 470 kts | 173° |
| 2026-04-17 06:41 | 52.19272 | 127.60386 | 38887 ft | 469 kts | 173° |
| 2026-04-17 06:42 | 52.12876 | 127.62508 | 38889 ft | 469 kts | 173° |
| 2026-04-17 06:42 | 52.06479 | 127.64623 | 38887 ft | 469 kts | 173° |
| 2026-04-17 06:43 | 52.00101 | 127.66450 | 38876 ft | 466 kts | 178° |
| 2026-04-17 06:43 | 51.93665 | 127.66841 | 38880 ft | 462 kts | 185° |
| 2026-04-17 06:44 | 51.87238 | 127.66765 | 38880 ft | 462 kts | 184° |
| 2026-04-17 06:44 | 51.80795 | 127.66745 | 38878 ft | 462 kts | 184° |
| 2026-04-17 06:45 | 51.74359 | 127.66745 | 38880 ft | 462 kts | 184° |
| 2026-04-17 06:45 | 51.67925 | 127.66747 | 38880 ft | 462 kts | 184° |
| 2026-04-17 06:46 | 51.61487 | 127.66747 | 38877 ft | 462 kts | 184° |
| 2026-04-17 06:46 | 51.55050 | 127.66745 | 38873 ft | 463 kts | 184° |
| 2026-04-17 06:47 | 51.48652 | 127.66746 | 38878 ft | 463 kts | 184° |
| 2026-04-17 06:47 | 51.42213 | 127.66746 | 38873 ft | 463 kts | 184° |
| 2026-04-17 06:48 | 51.35770 | 127.66746 | 38871 ft | 462 kts | 184° |
| 2026-04-17 06:48 | 51.29394 | 127.66013 | 38866 ft | 457 kts | 193° |
| 2026-04-17 06:49 | 51.23128 | 127.64299 | 38869 ft | 456 kts | 194° |
| 2026-04-17 06:49 | 51.16850 | 127.62608 | 38874 ft | 457 kts | 193° |
| 2026-04-17 06:50 | 51.10580 | 127.60955 | 38868 ft | 457 kts | 193° |
| 2026-04-17 06:50 | 51.04343 | 127.59321 | 38866 ft | 457 kts | 193° |
| 2026-04-17 06:51 | 50.98067 | 127.57680 | 38871 ft | 457 kts | 193° |
| 2026-04-17 06:51 | 50.91786 | 127.56042 | 38871 ft | 457 kts | 193° |
| 2026-04-17 06:52 | 50.85515 | 127.54418 | 38871 ft | 457 kts | 193° |
| 2026-04-17 06:52 | 50.80288 | 127.53075 | 38872 ft | 457 kts | 193° |
| 2026-04-17 06:53 | 50.74015 | 127.51467 | 38867 ft | 457 kts | 193° |
| 2026-04-17 06:53 | 50.66720 | 127.49600 | 38867 ft | 456 kts | 193° |
| 2026-04-17 06:54 | 50.60444 | 127.47998 | 38861 ft | 456 kts | 193° |
| 2026-04-17 06:54 | 50.55225 | 127.46669 | 38859 ft | 456 kts | 193° |
| 2026-04-17 06:55 | 50.48952 | 127.45077 | 38859 ft | 457 kts | 193° |
| 2026-04-17 06:55 | 50.42664 | 127.43483 | 38861 ft | 457 kts | 193° |
| 2026-04-17 06:56 | 50.36520 | 127.41141 | 38858 ft | 451 kts | 202° |
| 2026-04-17 06:56 | 50.30624 | 127.37790 | 38862 ft | 450 kts | 204° |
| 2026-04-17 06:57 | 50.24726 | 127.34632 | 38860 ft | 451 kts | 201° |
| 2026-04-17 06:57 | 50.18699 | 127.31842 | 38857 ft | 452 kts | 199° |
| 2026-04-17 06:58 | 50.12504 | 127.29829 | 38859 ft | 456 kts | 193° |
| 2026-04-17 06:58 | 50.06230 | 127.28325 | 38857 ft | 456 kts | 193° |
| 2026-04-17 06:59 | 49.99966 | 127.26777 | 38859 ft | 456 kts | 193° |
| 2026-04-17 06:59 | 49.93696 | 127.25213 | 38858 ft | 456 kts | 193° |
| 2026-04-17 07:00 | 49.87416 | 127.23651 | 38862 ft | 457 kts | 193° |
| 2026-04-17 07:00 | 49.81146 | 127.22097 | 38857 ft | 457 kts | 193° |
| 2026-04-17 07:01 | 49.74868 | 127.20545 | 38860 ft | 456 kts | 193° |
| 2026-04-17 07:01 | 49.68629 | 127.19006 | 38855 ft | 456 kts | 193° |
| 2026-04-17 07:02 | 49.62365 | 127.17465 | 38853 ft | 456 kts | 193° |
| 2026-04-17 07:02 | 49.56097 | 127.15927 | 38850 ft | 456 kts | 193° |
| 2026-04-17 07:03 | 49.49823 | 127.14392 | 38840 ft | 456 kts | 193° |
| 2026-04-17 07:03 | 49.43550 | 127.12861 | 38833 ft | 456 kts | 193° |
| 2026-04-17 07:04 | 49.37266 | 127.11330 | 38831 ft | 457 kts | 193° |
| 2026-04-17 07:04 | 49.30981 | 127.09804 | 38834 ft | 458 kts | 193° |
| 2026-04-17 07:05 | 49.24681 | 127.08280 | 38820 ft | 458 kts | 193° |
| 2026-04-17 07:05 | 49.18424 | 127.06769 | 38820 ft | 458 kts | 193° |
| 2026-04-17 07:06 | 49.12133 | 127.05252 | 38807 ft | 458 kts | 193° |
| 2026-04-17 07:06 | 49.05841 | 127.03739 | 38800 ft | 458 kts | 193° |
| 2026-04-17 07:07 | 48.99542 | 127.02230 | 38796 ft | 458 kts | 193° |
| 2026-04-17 07:07 | 48.93244 | 127.00724 | 38788 ft | 458 kts | 193° |
| 2026-04-17 07:08 | 48.86945 | 126.99222 | 38777 ft | 458 kts | 193° |
| 2026-04-17 07:08 | 48.80646 | 126.97724 | 38766 ft | 458 kts | 193° |
| 2026-04-17 07:09 | 48.74343 | 126.96228 | 38760 ft | 458 kts | 193° |
| 2026-04-17 07:09 | 48.68041 | 126.94736 | 38755 ft | 458 kts | 193° |
| 2026-04-17 07:10 | 48.61776 | 126.93257 | 38745 ft | 458 kts | 193° |
| 2026-04-17 07:10 | 48.55467 | 126.91771 | 38739 ft | 459 kts | 193° |
| 2026-04-17 07:11 | 48.49160 | 126.90290 | 38727 ft | 459 kts | 193° |
| 2026-04-17 07:11 | 48.42851 | 126.88811 | 38717 ft | 459 kts | 193° |
| 2026-04-17 07:12 | 48.36536 | 126.87335 | 38711 ft | 459 kts | 193° |
| 2026-04-17 07:12 | 48.30220 | 126.85863 | 38710 ft | 459 kts | 193° |
| 2026-04-17 07:13 | 48.23900 | 126.84393 | 38706 ft | 460 kts | 193° |
| 2026-04-17 07:13 | 48.17581 | 126.82927 | 38700 ft | 460 kts | 193° |
| 2026-04-17 07:14 | 48.11255 | 126.81462 | 38700 ft | 460 kts | 193° |
| 2026-04-17 07:14 | 48.04924 | 126.80001 | 38696 ft | 460 kts | 193° |
| 2026-04-17 07:15 | 47.98593 | 126.78543 | 38697 ft | 460 kts | 193° |
| 2026-04-17 07:15 | 47.92256 | 126.77089 | 38697 ft | 460 kts | 193° |
| 2026-04-17 07:16 | 47.85958 | 126.75645 | 38693 ft | 460 kts | 193° |
| 2026-04-17 07:16 | 47.79626 | 126.74198 | 38699 ft | 461 kts | 193° |
| 2026-04-17 07:17 | 47.73286 | 126.72753 | 38697 ft | 461 kts | 193° |
| 2026-04-17 07:17 | 47.63766 | 126.70589 | 38697 ft | 461 kts | 193° |
| 2026-04-17 07:18 | 47.57424 | 126.69153 | 38696 ft | 461 kts | 193° |
| 2026-04-17 07:18 | 47.51073 | 126.67717 | 38694 ft | 461 kts | 193° |
| 2026-04-17 07:19 | 47.44729 | 126.66286 | 38697 ft | 461 kts | 193° |
| 2026-04-17 07:19 | 47.38425 | 126.64868 | 38696 ft | 461 kts | 193° |
| 2026-04-17 07:20 | 47.32080 | 126.63444 | 38695 ft | 461 kts | 193° |
| 2026-04-17 07:20 | 47.25731 | 126.62023 | 38694 ft | 461 kts | 193° |
| 2026-04-17 07:21 | 47.19380 | 126.60605 | 38697 ft | 462 kts | 193° |
| 2026-04-17 07:21 | 47.13031 | 126.59191 | 38693 ft | 461 kts | 193° |
| 2026-04-17 07:22 | 47.06678 | 126.57780 | 38694 ft | 461 kts | 193° |
| 2026-04-17 07:22 | 47.00334 | 126.56373 | 38691 ft | 461 kts | 193° |
| 2026-04-17 07:23 | 46.94025 | 126.54977 | 38696 ft | 461 kts | 193° |
| 2026-04-17 07:23 | 46.87676 | 126.53577 | 38698 ft | 461 kts | 193° |
| 2026-04-17 07:24 | 46.81325 | 126.52178 | 38695 ft | 461 kts | 193° |
| 2026-04-17 07:24 | 46.74981 | 126.50785 | 38693 ft | 461 kts | 193° |
| 2026-04-17 07:25 | 46.68638 | 126.49395 | 38698 ft | 461 kts | 193° |
| 2026-04-17 07:25 | 46.62293 | 126.48009 | 38693 ft | 461 kts | 193° |
| 2026-04-17 07:26 | 46.55986 | 126.46632 | 38691 ft | 461 kts | 193° |
| 2026-04-17 07:26 | 46.49642 | 126.45251 | 38704 ft | 461 kts | 193° |
| 2026-04-17 07:27 | 46.43305 | 126.43840 | 38700 ft | 461 kts | 193° |
| 2026-04-17 07:27 | 46.36963 | 126.42410 | 38698 ft | 461 kts | 193° |
| 2026-04-17 07:28 | 46.30617 | 126.40989 | 38698 ft | 461 kts | 193° |
| 2026-04-17 07:28 | 46.24281 | 126.39576 | 38701 ft | 461 kts | 193° |
| 2026-04-17 07:29 | 46.17938 | 126.38164 | 38699 ft | 461 kts | 193° |
| 2026-04-17 07:29 | 46.11596 | 126.36756 | 38706 ft | 461 kts | 193° |
| 2026-04-17 07:30 | 46.05252 | 126.35351 | 38703 ft | 461 kts | 193° |
| 2026-04-17 07:30 | 45.98922 | 126.33952 | 38703 ft | 460 kts | 193° |
| 2026-04-17 07:31 | 45.92590 | 126.32556 | 38699 ft | 460 kts | 193° |
| 2026-04-17 07:31 | 45.86255 | 126.31163 | 38690 ft | 460 kts | 193° |
| 2026-04-17 07:32 | 45.79976 | 126.29785 | 38683 ft | 459 kts | 193° |
| 2026-04-17 07:32 | 45.73647 | 126.28399 | 38672 ft | 459 kts | 193° |
| 2026-04-17 07:33 | 45.67474 | 126.26413 | 38662 ft | 451 kts | 205° |
| 2026-04-17 07:33 | 45.62056 | 126.22134 | 38657 ft | 442 kts | 221° |
| 2026-04-17 07:34 | 45.57804 | 126.15992 | 38655 ft | 436 kts | 236° |
| 2026-04-17 07:34 | 45.54396 | 126.08839 | 38665 ft | 436 kts | 238° |
| 2026-04-17 07:35 | 45.50959 | 126.01704 | 38677 ft | 437 kts | 237° |
| 2026-04-17 07:35 | 45.47499 | 125.94574 | 38696 ft | 437 kts | 237° |
| 2026-04-17 07:36 | 45.44034 | 125.87450 | 38691 ft | 438 kts | 237° |
| 2026-04-17 07:36 | 45.40557 | 125.80317 | 38693 ft | 438 kts | 237° |
| 2026-04-17 07:37 | 45.37070 | 125.73180 | 38714 ft | 439 kts | 237° |
| 2026-04-17 07:37 | 45.33600 | 125.66097 | 38709 ft | 439 kts | 237° |
| 2026-04-17 07:38 | 45.30078 | 125.58926 | 38711 ft | 439 kts | 237° |
| 2026-04-17 07:38 | 45.26598 | 125.51859 | 38707 ft | 440 kts | 237° |
| 2026-04-17 07:39 | 45.23086 | 125.44745 | 38702 ft | 440 kts | 237° |
| 2026-04-17 07:39 | 45.20161 | 125.38833 | 38702 ft | 440 kts | 237° |
| 2026-04-17 07:40 | 45.16640 | 125.31734 | 38701 ft | 440 kts | 237° |
| 2026-04-17 07:40 | 45.13114 | 125.24643 | 38697 ft | 440 kts | 237° |
| 2026-04-17 07:41 | 45.09581 | 125.17551 | 38699 ft | 440 kts | 238° |
| 2026-04-17 07:41 | 45.06079 | 125.10448 | 38701 ft | 440 kts | 238° |
| 2026-04-17 07:42 | 45.02579 | 125.03342 | 38696 ft | 441 kts | 238° |
| 2026-04-17 07:42 | 44.99065 | 124.96238 | 38695 ft | 441 kts | 238° |
| 2026-04-17 07:43 | 44.95546 | 124.89147 | 38698 ft | 441 kts | 238° |
| 2026-04-17 07:43 | 44.92047 | 124.82111 | 38694 ft | 441 kts | 238° |
| 2026-04-17 07:44 | 44.88497 | 124.75046 | 38687 ft | 441 kts | 238° |
| 2026-04-17 07:44 | 44.84915 | 124.68027 | 38682 ft | 441 kts | 238° |
| 2026-04-17 07:45 | 44.81333 | 124.61010 | 38681 ft | 441 kts | 238° |
| 2026-04-17 07:45 | 44.77753 | 124.54005 | 38682 ft | 441 kts | 238° |
| 2026-04-17 07:46 | 44.74165 | 124.47001 | 38682 ft | 441 kts | 238° |
| 2026-04-17 07:46 | 44.70572 | 124.40000 | 38682 ft | 441 kts | 238° |
| 2026-04-17 07:47 | 44.66969 | 124.33000 | 38683 ft | 442 kts | 238° |
| 2026-04-17 07:47 | 44.63386 | 124.26056 | 38682 ft | 442 kts | 238° |
| 2026-04-17 07:48 | 44.59771 | 124.19066 | 38684 ft | 442 kts | 238° |
| 2026-04-17 07:48 | 44.56152 | 124.12085 | 38691 ft | 442 kts | 238° |
| 2026-04-17 07:49 | 44.52525 | 124.05113 | 38688 ft | 443 kts | 238° |
| 2026-04-17 07:49 | 44.48891 | 123.98153 | 38688 ft | 443 kts | 238° |
| 2026-04-17 07:50 | 44.45249 | 123.91192 | 38692 ft | 443 kts | 238° |
| 2026-04-17 07:50 | 44.41644 | 123.84213 | 38693 ft | 442 kts | 238° |
| 2026-04-17 07:51 | 44.38052 | 123.77217 | 38693 ft | 443 kts | 238° |
| 2026-04-17 07:51 | 44.34450 | 123.70236 | 38697 ft | 443 kts | 238° |
| 2026-04-17 07:52 | 44.30865 | 123.63313 | 38698 ft | 443 kts | 238° |
| 2026-04-17 07:52 | 44.27242 | 123.56337 | 38694 ft | 442 kts | 238° |
| 2026-04-17 07:53 | 44.23626 | 123.49390 | 38697 ft | 442 kts | 238° |
| 2026-04-17 07:53 | 44.20007 | 123.42451 | 38697 ft | 442 kts | 238° |
| 2026-04-17 07:54 | 44.16413 | 123.35578 | 38695 ft | 442 kts | 238° |
| 2026-04-17 07:54 | 44.12784 | 123.28654 | 38699 ft | 442 kts | 238° |
| 2026-04-17 07:55 | 44.09154 | 123.21745 | 38702 ft | 442 kts | 238° |
| 2026-04-17 07:55 | 44.05509 | 123.14824 | 38817 ft | 443 kts | 238° |
| 2026-04-17 07:56 | 44.03687 | 123.11371 | 38964 ft | 443 kts | 238° |
| 2026-04-17 07:56 | 44.01861 | 123.07915 | 39104 ft | 443 kts | 238° |
| 2026-04-17 07:56 | 44.00039 | 123.04470 | 39241 ft | 443 kts | 238° |
| 2026-04-17 07:56 | 43.98216 | 123.01026 | 39378 ft | 442 kts | 238° |
| 2026-04-17 07:57 | 43.96390 | 122.97583 | 39522 ft | 442 kts | 237° |
| 2026-04-17 07:57 | 43.94568 | 122.94149 | 39652 ft | 442 kts | 237° |
| 2026-04-17 07:57 | 43.92746 | 122.90702 | 39787 ft | 442 kts | 238° |
| 2026-04-17 07:57 | 43.90981 | 122.87282 | 39823 ft | 442 kts | 238° |
| 2026-04-17 07:58 | 43.87446 | 122.80335 | 39828 ft | 440 kts | 239° |
| 2026-04-17 07:58 | 43.83900 | 122.73404 | 39828 ft | 441 kts | 238° |
| 2026-04-17 07:59 | 43.80364 | 122.66536 | 39834 ft | 441 kts | 238° |
| 2026-04-17 07:59 | 43.76799 | 122.59634 | 39837 ft | 441 kts | 238° |
| 2026-04-17 08:00 | 43.73229 | 122.52737 | 39841 ft | 441 kts | 238° |
| 2026-04-17 08:00 | 43.69653 | 122.45845 | 39847 ft | 441 kts | 238° |
| 2026-04-17 08:01 | 43.66073 | 122.38962 | 39854 ft | 441 kts | 238° |
| 2026-04-17 08:01 | 43.62488 | 122.32086 | 39861 ft | 441 kts | 238° |
| 2026-04-17 08:02 | 43.58919 | 122.25256 | 39863 ft | 441 kts | 238° |
| 2026-04-17 08:02 | 43.55328 | 122.18395 | 39869 ft | 442 kts | 238° |
| 2026-04-17 08:03 | 43.51751 | 122.11495 | 39869 ft | 442 kts | 239° |
| 2026-04-17 08:03 | 43.48190 | 122.04599 | 39871 ft | 442 kts | 239° |
| 2026-04-17 08:04 | 43.44621 | 121.97706 | 39881 ft | 442 kts | 239° |
| 2026-04-17 08:04 | 43.41047 | 121.90827 | 39882 ft | 442 kts | 239° |
| 2026-04-17 08:05 | 43.37490 | 121.84004 | 39882 ft | 442 kts | 239° |
| 2026-04-17 08:05 | 43.33904 | 121.77142 | 39887 ft | 441 kts | 238° |
| 2026-04-17 08:06 | 43.30318 | 121.70297 | 39884 ft | 441 kts | 238° |
| 2026-04-17 08:06 | 43.26723 | 121.63450 | 39893 ft | 441 kts | 238° |
| 2026-04-17 08:07 | 43.23131 | 121.56624 | 39896 ft | 441 kts | 238° |
| 2026-04-17 08:07 | 43.19538 | 121.49813 | 39900 ft | 441 kts | 238° |
| 2026-04-17 08:08 | 43.15969 | 121.43063 | 39899 ft | 440 kts | 238° |
| 2026-04-17 08:08 | 43.12371 | 121.36272 | 39900 ft | 440 kts | 238° |
| 2026-04-17 08:09 | 43.08772 | 121.29495 | 39901 ft | 440 kts | 238° |
| 2026-04-17 08:09 | 43.05174 | 121.22736 | 39912 ft | 439 kts | 238° |
| 2026-04-17 08:10 | 43.01572 | 121.15986 | 39910 ft | 439 kts | 238° |
| 2026-04-17 08:10 | 42.97970 | 121.09249 | 39906 ft | 439 kts | 238° |
| 2026-04-17 08:11 | 42.94362 | 121.02517 | 39908 ft | 439 kts | 238° |
| 2026-04-17 08:11 | 42.90757 | 120.95806 | 39911 ft | 438 kts | 238° |
| 2026-04-17 08:12 | 42.87150 | 120.89108 | 39911 ft | 438 kts | 238° |
| 2026-04-17 08:12 | 42.83541 | 120.82418 | 39912 ft | 438 kts | 238° |
| 2026-04-17 08:13 | 42.79929 | 120.75740 | 39919 ft | 438 kts | 238° |
| 2026-04-17 08:14 | 42.74524 | 120.65773 | 39919 ft | 437 kts | 238° |
| 2026-04-17 08:14 | 42.70906 | 120.59122 | 39925 ft | 437 kts | 238° |
| 2026-04-17 08:15 | 42.67277 | 120.52465 | 39923 ft | 437 kts | 238° |
| 2026-04-17 08:15 | 42.63652 | 120.45828 | 39919 ft | 437 kts | 238° |
| 2026-04-17 08:16 | 42.60030 | 120.39212 | 39920 ft | 437 kts | 238° |
| 2026-04-17 08:16 | 42.56419 | 120.32630 | 39924 ft | 437 kts | 238° |
| 2026-04-17 08:17 | 42.52786 | 120.26024 | 39926 ft | 437 kts | 238° |
| 2026-04-17 08:17 | 42.49150 | 120.19428 | 39928 ft | 436 kts | 238° |
| 2026-04-17 08:18 | 42.45506 | 120.12828 | 39929 ft | 436 kts | 238° |
| 2026-04-17 08:18 | 42.41863 | 120.06247 | 39928 ft | 437 kts | 238° |
| 2026-04-17 08:19 | 42.38219 | 119.99679 | 39931 ft | 437 kts | 238° |
| 2026-04-17 08:19 | 42.34590 | 119.93152 | 39940 ft | 437 kts | 238° |
| 2026-04-17 08:20 | 42.30937 | 119.86596 | 39921 ft | 436 kts | 238° |
| 2026-04-17 08:20 | 42.27279 | 119.80048 | 39910 ft | 436 kts | 238° |
| 2026-04-17 08:21 | 42.23623 | 119.73516 | 39918 ft | 436 kts | 238° |
| 2026-04-17 08:21 | 42.19965 | 119.66991 | 39920 ft | 436 kts | 238° |
| 2026-04-17 08:22 | 42.16303 | 119.60475 | 39919 ft | 436 kts | 238° |
| 2026-04-17 08:22 | 42.12641 | 119.53974 | 39914 ft | 436 kts | 238° |
| 2026-04-17 08:23 | 42.08994 | 119.47513 | 39914 ft | 435 kts | 238° |
| 2026-04-17 08:23 | 42.05327 | 119.41031 | 39908 ft | 436 kts | 238° |
| 2026-04-17 08:24 | 42.01639 | 119.34526 | 39905 ft | 436 kts | 238° |
| 2026-04-17 08:24 | 41.97961 | 119.28052 | 39907 ft | 436 kts | 238° |
| 2026-04-17 08:25 | 41.94278 | 119.21582 | 39905 ft | 436 kts | 238° |
| 2026-04-17 08:25 | 41.90586 | 119.15110 | 39906 ft | 437 kts | 238° |
| 2026-04-17 08:26 | 41.86889 | 119.08646 | 39912 ft | 437 kts | 238° |
| 2026-04-17 08:26 | 41.83808 | 119.03270 | 39912 ft | 437 kts | 238° |
| 2026-04-17 08:27 | 41.80096 | 118.96804 | 39926 ft | 438 kts | 238° |
| 2026-04-17 08:27 | 41.75774 | 118.89293 | 39929 ft | 438 kts | 238° |
| 2026-04-17 08:28 | 41.72057 | 118.82845 | 39936 ft | 437 kts | 238° |
| 2026-04-17 08:28 | 41.68938 | 118.77445 | 39946 ft | 438 kts | 238° |
| 2026-04-17 08:29 | 41.65205 | 118.71001 | 39947 ft | 438 kts | 238° |
| 2026-04-17 08:29 | 41.61494 | 118.64604 | 39966 ft | 438 kts | 238° |
| 2026-04-17 08:30 | 41.57760 | 118.58179 | 39968 ft | 437 kts | 237° |
| 2026-04-17 08:30 | 41.54038 | 118.51787 | 39966 ft | 436 kts | 237° |
| 2026-04-17 08:31 | 41.50314 | 118.45395 | 39968 ft | 437 kts | 238° |
| 2026-04-17 08:31 | 41.47044 | 118.38652 | 39972 ft | 432 kts | 244° |
| 2026-04-17 08:32 | 41.43932 | 118.31775 | 39972 ft | 432 kts | 244° |
| 2026-04-17 08:32 | 41.40829 | 118.24991 | 39971 ft | 431 kts | 243° |
| 2026-04-17 08:33 | 41.37693 | 118.18179 | 39963 ft | 432 kts | 243° |
| 2026-04-17 08:33 | 41.34544 | 118.11360 | 39966 ft | 432 kts | 243° |
| 2026-04-17 08:34 | 41.31397 | 118.04555 | 39962 ft | 432 kts | 243° |
| 2026-04-17 08:34 | 41.28237 | 117.97740 | 39965 ft | 432 kts | 243° |
| 2026-04-17 08:35 | 41.25075 | 117.90938 | 39965 ft | 432 kts | 243° |
| 2026-04-17 08:35 | 41.21912 | 117.84146 | 39956 ft | 432 kts | 243° |
| 2026-04-17 08:36 | 41.18746 | 117.77363 | 39903 ft | 430 kts | 243° |
| 2026-04-17 08:36 | 41.17190 | 117.74036 | 39504 ft | 430 kts | 243° |
| 2026-04-17 08:36 | 41.15606 | 117.70652 | 38773 ft | 434 kts | 243° |
| 2026-04-17 08:36 | 41.14002 | 117.67226 | 37506 ft | 441 kts | 243° |
| 2026-04-17 08:37 | 41.12366 | 117.63735 | 36029 ft | 449 kts | 244° |
| 2026-04-17 08:37 | 41.10701 | 117.60185 | 34609 ft | 456 kts | 244° |
| 2026-04-17 08:37 | 41.09008 | 117.56589 | 33121 ft | 463 kts | 244° |
| 2026-04-17 08:37 | 41.07295 | 117.52953 | 31528 ft | 468 kts | 244° |
| 2026-04-17 08:38 | 41.05543 | 117.49284 | 29828 ft | 476 kts | 241° |
| 2026-04-17 08:38 | 41.03362 | 117.45909 | 28340 ft | 487 kts | 229° |
| 2026-04-17 08:38 | 41.00679 | 117.43159 | 27391 ft | 490 kts | 217° |
| 2026-04-17 08:38 | 40.97629 | 117.41145 | 26766 ft | 488 kts | 207° |
| 2026-04-17 08:39 | 40.94476 | 117.39608 | 26385 ft | 476 kts | 204° |
| 2026-04-17 08:39 | 40.91368 | 117.38178 | 25621 ft | 472 kts | 204° |
| 2026-04-17 08:39 | 40.88328 | 117.36743 | 24994 ft | 467 kts | 205° |
| 2026-04-17 08:39 | 40.85287 | 117.35257 | 24255 ft | 463 kts | 206° |
| 2026-04-17 08:40 | 40.82285 | 117.33754 | 23547 ft | 460 kts | 206° |
| 2026-04-17 08:40 | 40.79310 | 117.32246 | 22830 ft | 455 kts | 206° |
| 2026-04-17 08:40 | 40.76377 | 117.30756 | 22150 ft | 448 kts | 206° |
| 2026-04-17 08:40 | 40.73599 | 117.29043 | 21472 ft | 433 kts | 217° |
| 2026-04-17 08:41 | 40.71279 | 117.26660 | 20822 ft | 415 kts | 230° |
| 2026-04-17 08:41 | 40.69545 | 117.23726 | 20201 ft | 398 kts | 244° |
| 2026-04-17 08:41 | 40.68484 | 117.20456 | 19630 ft | 381 kts | 257° |
| 2026-04-17 08:41 | 40.67808 | 117.17127 | 19024 ft | 372 kts | 260° |
| 2026-04-17 08:42 | 40.67162 | 117.13854 | 18406 ft | 367 kts | 258° |
| 2026-04-17 08:42 | 40.66441 | 117.10663 | 17829 ft | 360 kts | 256° |
| 2026-04-17 08:42 | 40.65656 | 117.07563 | 17254 ft | 353 kts | 255° |
| 2026-04-17 08:42 | 40.64854 | 117.04593 | 16702 ft | 346 kts | 254° |
| 2026-04-17 08:43 | 40.64023 | 117.01610 | 16129 ft | 339 kts | 253° |
| 2026-04-17 08:43 | 40.63225 | 116.98765 | 15603 ft | 333 kts | 253° |
| 2026-04-17 08:43 | 40.62397 | 116.95792 | 15027 ft | 362 kts | 253° |
| 2026-04-17 08:43 | 40.61510 | 116.92606 | 14435 ft | 376 kts | 252° |
| 2026-04-17 08:44 | 40.60374 | 116.89500 | 13978 ft | 377 kts | 242° |
| 2026-04-17 08:44 | 40.58769 | 116.86795 | 13498 ft | 371 kts | 229° |
| 2026-04-17 08:44 | 40.56876 | 116.84639 | 13404 ft | 350 kts | 223° |
| 2026-04-17 08:44 | 40.54987 | 116.82560 | 13308 ft | 358 kts | 224° |
| 2026-04-17 08:45 | 40.53096 | 116.80435 | 13168 ft | 356 kts | 224° |
| 2026-04-17 08:45 | 40.51219 | 116.78314 | 13028 ft | 355 kts | 224° |
| 2026-04-17 08:45 | 40.49345 | 116.76199 | 12896 ft | 355 kts | 224° |
| 2026-04-17 08:45 | 40.47472 | 116.74093 | 12758 ft | 354 kts | 224° |
| 2026-04-17 08:46 | 40.45600 | 116.71991 | 12630 ft | 353 kts | 224° |
| 2026-04-17 08:46 | 40.43715 | 116.69933 | 12489 ft | 354 kts | 220° |
| 2026-04-17 08:46 | 40.41487 | 116.68502 | 12358 ft | 362 kts | 200° |
| 2026-04-17 08:46 | 40.39001 | 116.68088 | 12227 ft | 370 kts | 181° |
| 2026-04-17 08:47 | 40.36421 | 116.68442 | 12088 ft | 372 kts | 175° |
| 2026-04-17 08:47 | 40.33861 | 116.68944 | 11945 ft | 371 kts | 174° |
| 2026-04-17 08:47 | 40.31305 | 116.69446 | 11809 ft | 371 kts | 175° |
| 2026-04-17 08:47 | 40.28747 | 116.69908 | 11668 ft | 371 kts | 176° |
| 2026-04-17 08:48 | 40.26187 | 116.70336 | 11529 ft | 370 kts | 176° |
| 2026-04-17 08:48 | 40.23632 | 116.70743 | 11387 ft | 369 kts | 176° |
| 2026-04-17 08:48 | 40.21083 | 116.71141 | 11246 ft | 367 kts | 176° |
| 2026-04-17 08:48 | 40.18547 | 116.71533 | 11112 ft | 367 kts | 176° |
| 2026-04-17 08:49 | 40.16046 | 116.71920 | 10972 ft | 366 kts | 176° |
| 2026-04-17 08:49 | 40.13516 | 116.72312 | 10830 ft | 366 kts | 176° |
| 2026-04-17 08:49 | 40.10992 | 116.72704 | 10699 ft | 365 kts | 176° |
| 2026-04-17 08:49 | 40.08467 | 116.73096 | 10550 ft | 364 kts | 176° |
| 2026-04-17 08:50 | 40.05966 | 116.73486 | 10458 ft | 358 kts | 176° |
| 2026-04-17 08:50 | 40.03534 | 116.73867 | 10349 ft | 345 kts | 176° |
| 2026-04-17 08:50 | 40.01205 | 116.74234 | 10191 ft | 328 kts | 177° |
| 2026-04-17 08:50 | 39.99005 | 116.74579 | 9967 ft | 311 kts | 177° |
| 2026-04-17 08:51 | 39.96876 | 116.74908 | 9435 ft | 305 kts | 177° |
| 2026-04-17 08:51 | 39.94804 | 116.75225 | 9132 ft | 293 kts | 177° |
| 2026-04-17 08:51 | 39.92759 | 116.75535 | 9063 ft | 299 kts | 177° |
| 2026-04-17 08:51 | 39.90697 | 116.75849 | 9002 ft | 297 kts | 177° |
| 2026-04-17 08:52 | 39.88639 | 116.76166 | 8943 ft | 297 kts | 177° |
| 2026-04-17 08:52 | 39.86582 | 116.76485 | 8885 ft | 297 kts | 177° |
| 2026-04-17 08:52 | 39.84532 | 116.76801 | 8825 ft | 297 kts | 177° |
| 2026-04-17 08:52 | 39.82481 | 116.77116 | 8764 ft | 296 kts | 177° |
| 2026-04-17 08:53 | 39.80434 | 116.77432 | 8705 ft | 296 kts | 176° |
| 2026-04-17 08:53 | 39.78386 | 116.77749 | 8650 ft | 296 kts | 176° |
| 2026-04-17 08:53 | 39.76371 | 116.78061 | 8591 ft | 295 kts | 176° |
| 2026-04-17 08:53 | 39.74332 | 116.78377 | 8535 ft | 295 kts | 176° |
| 2026-04-17 08:54 | 39.72295 | 116.78691 | 8479 ft | 294 kts | 176° |
| 2026-04-17 08:54 | 39.70261 | 116.79004 | 8424 ft | 295 kts | 176° |
| 2026-04-17 08:54 | 39.68220 | 116.79318 | 8325 ft | 294 kts | 176° |
| 2026-04-17 08:54 | 39.66189 | 116.79631 | 8214 ft | 294 kts | 176° |
| 2026-04-17 08:55 | 39.64161 | 116.79943 | 8099 ft | 293 kts | 176° |
| 2026-04-17 08:55 | 39.62137 | 116.80253 | 7987 ft | 292 kts | 176° |
| 2026-04-17 08:55 | 39.60121 | 116.80503 | 7914 ft | 290 kts | 182° |
| 2026-04-17 08:55 | 39.58137 | 116.80213 | 7870 ft | 286 kts | 197° |
| 2026-04-17 08:56 | 39.56271 | 116.79376 | 7748 ft | 282 kts | 205° |
| 2026-04-17 08:56 | 39.54439 | 116.78473 | 7645 ft | 282 kts | 204° |
| 2026-04-17 08:56 | 39.52622 | 116.77530 | 7519 ft | 279 kts | 211° |
| 2026-04-17 08:56 | 39.51180 | 116.75924 | 7405 ft | 273 kts | 236° |
| 2026-04-17 08:57 | 39.50421 | 116.73713 | 7287 ft | 268 kts | 261° |
| 2026-04-17 08:57 | 39.50487 | 116.71329 | 7165 ft | 267 kts | 285° |
| 2026-04-17 08:57 | 39.51188 | 116.69094 | 7052 ft | 268 kts | 296° |
| 2026-04-17 08:57 | 39.52000 | 116.66931 | 6940 ft | 266 kts | 295° |
| 2026-04-17 08:58 | 39.52733 | 116.64725 | 6770 ft | 269 kts | 291° |
| 2026-04-17 08:58 | 39.53366 | 116.62466 | 6434 ft | 269 kts | 288° |
| 2026-04-17 08:58 | 39.53921 | 116.60201 | 6085 ft | 260 kts | 286° |
| 2026-04-17 08:58 | 39.54422 | 116.58007 | 5754 ft | 248 kts | 285° |
| 2026-04-17 08:59 | 39.54914 | 116.55929 | 5449 ft | 236 kts | 290° |
| 2026-04-17 08:59 | 39.55837 | 116.54194 | 5075 ft | 235 kts | 316° |
| 2026-04-17 08:59 | 39.57277 | 116.53184 | 4842 ft | 246 kts | 343° |
| 2026-04-17 08:59 | 39.58982 | 116.52911 | 4774 ft | 247 kts | 353° |
| 2026-04-17 09:00 | 39.60685 | 116.52714 | 4662 ft | 245 kts | 352° |
| 2026-04-17 09:00 | 39.62379 | 116.52484 | 4558 ft | 246 kts | 351° |
| 2026-04-17 09:00 | 39.64077 | 116.52226 | 4441 ft | 245 kts | 351° |
| 2026-04-17 09:00 | 39.65758 | 116.51958 | 4198 ft | 241 kts | 351° |
| 2026-04-17 09:01 | 39.67423 | 116.51691 | 3718 ft | 241 kts | 351° |
| 2026-04-17 09:01 | 39.69087 | 116.51425 | 3216 ft | 240 kts | 350° |
| 2026-04-17 09:01 | 39.70750 | 116.51155 | 3084 ft | 246 kts | 350° |
| 2026-04-17 09:01 | 39.72429 | 116.50879 | 2868 ft | 239 kts | 351° |
| 2026-04-17 09:02 | 39.74101 | 116.50603 | 2666 ft | 246 kts | 351° |
| 2026-04-17 09:02 | 39.75762 | 116.50335 | 2466 ft | 240 kts | 351° |
| 2026-04-17 09:02 | 39.77426 | 116.50068 | 2254 ft | 242 kts | 351° |
| 2026-04-17 09:02 | 39.78999 | 116.49431 | 2056 ft | 233 kts | 325° |
| 2026-04-17 09:03 | 39.80109 | 116.47968 | 1963 ft | 228 kts | 295° |
| 2026-04-17 09:03 | 39.80507 | 116.46006 | 1958 ft | 223 kts | 266° |
| 2026-04-17 09:03 | 39.80278 | 116.44043 | 1947 ft | 215 kts | 251° |
| 2026-04-17 09:03 | 39.79562 | 116.42362 | 1950 ft | 215 kts | 233° |
| 2026-04-17 09:04 | 39.78700 | 116.40755 | 1954 ft | 218 kts | 233° |
| 2026-04-17 09:04 | 39.77844 | 116.39157 | 1958 ft | 214 kts | 233° |
| 2026-04-17 09:04 | 39.76991 | 116.37558 | 1958 ft | 215 kts | 233° |
| 2026-04-17 09:04 | 39.76015 | 116.36107 | 1958 ft | 213 kts | 216° |
| 2026-04-17 09:05 | 39.74643 | 116.35396 | 1958 ft | 215 kts | 190° |
| 2026-04-17 09:05 | 39.73156 | 116.35349 | 1958 ft | 218 kts | 178° |
| 2026-04-17 09:05 | 39.71652 | 116.35566 | 1960 ft | 217 kts | 174° |
| 2026-04-17 09:05 | 39.70152 | 116.35824 | 1957 ft | 218 kts | 175° |
| 2026-04-17 09:06 | 39.68648 | 116.36054 | 1967 ft | 219 kts | 175° |
| 2026-04-17 09:06 | 39.67136 | 116.36293 | 1962 ft | 219 kts | 175° |
| 2026-04-17 09:06 | 39.65663 | 116.36530 | 1960 ft | 200 kts | 175° |
| 2026-04-17 09:06 | 39.64379 | 116.36736 | 1968 ft | 173 kts | 174° |
| 2026-04-17 09:07 | 39.63278 | 116.36911 | 1957 ft | 146 kts | 176° |
| 2026-04-17 09:07 | 39.62271 | 116.37062 | 1973 ft | 151 kts | 176° |
| 2026-04-17 09:07 | 39.61263 | 116.37221 | 1942 ft | 139 kts | 175° |
| 2026-04-17 09:07 | 39.60317 | 116.37368 | 1782 ft | 139 kts | 176° |
| 2026-04-17 09:08 | 39.59363 | 116.37523 | 1599 ft | 134 kts | 175° |
| 2026-04-17 09:08 | 39.58427 | 116.37668 | 1440 ft | 141 kts | 176° |
| 2026-04-17 09:08 | 39.57471 | 116.37822 | 1249 ft | 134 kts | 176° |
| 2026-04-17 09:08 | 39.56516 | 116.37969 | 1082 ft | 142 kts | 176° |
| 2026-04-17 09:09 | 39.55563 | 116.38123 | 888 ft | 133 kts | 175° |
| 2026-04-17 09:09 | 39.54638 | 116.38271 | 710 ft | 140 kts | 175° |
| 2026-04-17 09:09 | 39.53677 | 116.38424 | 527 ft | 137 kts | 175° |
| 2026-04-17 09:09 | 39.52711 | 116.38576 | 310 ft | 137 kts | 174° |
| 2026-04-17 09:10 | 39.50837 | 116.38881 | 104 ft | 105 kts | 172° |
| 2026-04-17 09:10 | 39.50335 | 116.38990 | 95 ft | 37 kts | 144° |
| 2026-04-17 09:10 | 39.50224 | 116.39106 | 95 ft | 4 kts | 113° |
| 2026-04-17 09:11 | 39.50256 | 116.39161 | 94 ft | 16 kts | 40° |
| 2026-04-17 09:11 | 39.50312 | 116.39170 | 93 ft | 0 kts | 351° |